DW9677 Weather Reports


Display with metric or nautical units.
time (UTC)temp
F
wind
direction
speed
MPH
gust
MPH
rain 1hr
in
rain 24hr
in
rain mn
in
humidity
%
barometer
mb
20200806101555 73 98 1.0 2.0 0.00 0.00 0.00 66 1020.2
20200806100020 72 98 0.0 2.0 0.00 0.00 0.00 67 1020.2
20200806093035 71 99 0.0 2.0 0.00 0.00 0.00 68 1020.3
20200806091539 71 99 0.0 1.0 0.00 0.00 0.00 69 1020.3
20200806090031 68 99 0.0 2.0 0.00 0.00 0.00 74 1020.4
20200806084515 68 98 0.0 2.0 0.00 0.00 0.00 74 1020.3
20200806083006 68 99 0.0 2.0 0.00 0.00 0.00 73 1020.3
20200806081545 68 99 0.0 1.0 0.00 0.00 0.00 77 1020.1
20200806074642 66 98 0.0 1.0 0.00 0.01 0.00 74 1020.4
20200806073058 65 98 0.0 0.0 0.00 0.01 0.00 76 1020.3
20200806071630 64 98 0.0 1.0 0.00 0.01 0.00 78 1020.4
20200806070217 60 98 0.0 1.0 0.00 0.01 0.00 85 1020.4
20200806064615 58 98 0.0 0.0 0.00 0.01 0.00 86 1020.3
20200806063053 57 98 0.0 0.0 0.00 0.01 0.00 86 1020.3
20200806061544 56 98 0.0 1.0 0.00 0.01 0.00 85 1020.3
20200806060046 55 99 0.0 1.0 0.00 0.01 0.00 85 1020.1
20200806054627 54 98 0.0 1.0 0.00 0.01 0.00 87 1020.1
20200806053112 53 98 0.0 1.0 0.00 0.01 0.00 87 1020.0
20200806051550 52 98 0.0 0.0 0.00 0.01 0.00 86 1019.8
20200806050019 49 98 0.0 0.0 0.00 0.01 0.00 85 1019.8
20200806044516 49 99 0.0 0.0 0.00 0.01 0.00 85 1019.6
20200806043039 48 99 0.0 0.0 0.00 0.01 0.00 85 1019.5
20200806041524 48 99 0.0 0.0 0.00 0.01 0.00 85 1019.5
20200806040019 48 98 0.0 0.0 0.00 0.01 0.00 85 1019.5
20200806034519 48 99 0.0 0.0 0.00 0.01 0.00 85 1019.6
20200806033012 48 101 0.0 0.0 0.00 0.01 0.00 84 1019.5
20200806031509 48 99 0.0 0.0 0.00 0.01 0.00 85 1019.4
20200806030017 48 98 0.0 0.0 0.00 0.01 0.00 84 1019.4
20200806024818 48 98 0.0 0.0 0.00 0.01 0.00 84 1019.3
20200806023142 49 98 0.0 0.0 0.00 0.01 0.00 84 1019.1
20200806021640 49 98 0.0 0.0 0.00 0.01 0.00 84 1019.1
20200806020244 49 98 0.0 0.0 0.00 0.01 0.00 84 1019.2
20200806014711 49 98 0.0 0.0 0.00 0.01 0.00 84 1019.2
20200806013221 50 99 0.0 0.0 0.00 0.01 0.00 84 1019.1
20200806011617 50 98 0.0 0.0 0.00 0.01 0.00 84 1019.1
20200806010146 50 98 0.0 0.0 0.00 0.01 0.00 84 1019.0
20200806004738 50 98 0.0 0.0 0.00 0.01 0.00 84 1019.1
20200806003219 50 98 0.0 0.0 0.00 0.01 0.00 84 1019.2
20200806001645 50 98 0.0 0.0 0.00 0.01 0.00 84 1019.1
20200806000051 51 99 0.0 0.0 0.00 0.01 0.00 84 1019.1
20200805234616 51 98 0.0 0.0 0.00 0.01 0.00 84 1019.0
20200805233053 51 98 0.0 0.0 0.00 0.01 0.00 84 1019.0
20200805231737 51 98 0.0 0.0 0.00 0.01 0.00 85 1019.0
20200805230139 51 99 0.0 0.0 0.00 0.01 0.00 85 1019.0
20200805224620 52 99 0.0 0.0 0.00 0.01 0.00 84 1018.9
20200805223041 52 98 0.0 0.0 0.00 0.01 0.00 85 1019.1
20200805221539 52 98 0.0 0.0 0.00 0.01 0.00 85 1019.1
20200805220049 52 98 0.0 0.0 0.00 0.01 0.00 85 1019.0
20200805214613 53 98 0.0 0.0 0.00 0.01 0.01 85 1019.0
20200805213100 53 99 0.0 0.0 0.00 0.01 0.01 85 1019.1
20200805211555 53 98 0.0 0.0 0.00 0.01 0.01 85 1019.1
20200805210043 53 98 0.0 0.0 0.00 0.01 0.01 85 1019.2
20200805204538 53 99 0.0 0.0 0.00 0.01 0.01 85 1019.2
20200805203044 54 98 0.0 0.0 0.00 0.01 0.01 85 1019.0
20200805201652 54 98 0.0 0.0 0.00 0.01 0.01 85 1019.1
20200805200030 55 99 0.0 0.0 0.00 0.01 0.01 85 1019.1
20200805194543 55 98 0.0 0.0 0.00 0.01 0.01 85 1019.0
20200805193053 56 98 0.0 0.0 0.00 0.01 0.01 85 1018.9
20200805191551 57 98 0.0 0.0 0.00 0.01 0.01 84 1018.8
20200805190031 58 98 0.0 0.0 0.00 0.01 0.01 82 1018.6
20200805184618 59 99 0.0 0.0 0.00 0.01 0.01 80 1018.6
20200805183050 60 98 0.0 1.0 0.00 0.01 0.01 77 1018.5
20200805181558 61 98 0.0 1.0 0.00 0.01 0.01 78 1018.4
20200805180022 62 98 0.0 1.0 0.00 0.01 0.01 76 1018.2
20200805174524 63 99 0.0 2.0 0.00 0.01 0.01 74 1018.3
20200805173022 63 98 0.0 2.0 0.00 0.01 0.01 72 1018.1
20200805171533 63 98 0.0 3.0 0.00 0.01 0.01 71 1018.0
20200805170020 64 98 0.0 1.0 0.00 0.01 0.01 71 1018.1
20200805164521 64 98 0.0 3.0 0.00 0.01 0.01 70 1018.0
20200805163048 65 98 0.0 2.0 0.00 0.01 0.01 69 1018.1
20200805161521 65 99 0.0 2.0 0.00 0.01 0.01 68 1018.0
20200805160019 66 99 0.0 2.0 0.00 0.01 0.01 68 1018.1
20200805154519 67 99 1.0 3.0 0.00 0.01 0.01 66 1018.0
20200805153015 68 98 0.0 3.0 0.00 0.01 0.01 63 1018.0
20200805151525 68 98 0.0 4.0 0.00 0.01 0.01 65 1018.1
20200805150007 67 99 0.0 1.0 0.00 0.01 0.01 66 1018.0
20200805144519 68 99 1.0 3.0 0.00 0.01 0.01 63 1018.1
20200805143007 69 98 1.0 4.0 0.00 0.01 0.01 63 1018.2
20200805141633 70 98 1.0 4.0 0.00 0.01 0.01 64 1018.4
20200805140153 68 98 0.0 2.0 0.00 0.01 0.01 66 1018.3
20200805134618 70 98 1.0 2.0 0.00 0.03 0.01 61 1018.6
20200805133154 71 98 1.0 2.0 0.00 0.03 0.01 63 1018.6
20200805131642 70 99 1.0 6.0 0.00 0.03 0.01 64 1018.7
20200805130325 70 98 1.0 3.0 0.00 0.03 0.01 59 1018.9
20200805124708 70 99 0.0 5.0 0.00 0.05 0.01 62 1018.9
20200805123209 68 98 0.0 3.0 0.00 0.05 0.01 65 1019.0
20200805121608 70 99 0.0 2.0 0.00 0.05 0.01 61 1019.2
20200805120119 69 98 1.0 3.0 0.00 0.05 0.01 61 1019.4
20200805114634 69 98 0.0 3.0 0.00 0.16 0.01 65 1019.5
20200805113048 69 98 1.0 5.0 0.00 0.16 0.01 62 1019.7
20200805111643 69 98 1.0 3.0 0.00 0.16 0.01 61 1019.7
20200805110120 69 99 1.0 5.0 0.00 0.16 0.01 59 1019.8
20200805104652 68 99 1.0 2.0 0.00 0.22 0.01 63 1019.9
20200805103108 66 99 1.0 3.0 0.00 0.22 0.01 63 1020.1